sensor_id;sensor_type;location;lat;lon;timestamp;pressure;altitude;pressure_sealevel;temperature;humidity
67803;BME280;54601;51.378;-1.342;2022-08-21T00:01:25;100306.00;;;24.31;32.55
67803;BME280;54601;51.378;-1.342;2022-08-21T00:03:49;100307.23;;;24.70;32.38
67803;BME280;54601;51.378;-1.342;2022-08-21T00:06:15;100304.73;;;24.44;32.25
67803;BME280;54601;51.378;-1.342;2022-08-21T00:08:41;100304.78;;;24.83;32.47
67803;BME280;54601;51.378;-1.342;2022-08-21T00:11:07;100301.63;;;24.34;32.49
67803;BME280;54601;51.378;-1.342;2022-08-21T00:13:33;100296.37;;;24.27;32.46
67803;BME280;54601;51.378;-1.342;2022-08-21T00:15:58;100291.34;;;24.49;32.22
67803;BME280;54601;51.378;-1.342;2022-08-21T00:18:24;100288.55;;;24.14;32.42
67803;BME280;54601;51.378;-1.342;2022-08-21T00:20:49;100281.27;;;24.44;32.24
67803;BME280;54601;51.378;-1.342;2022-08-21T00:23:15;100274.10;;;24.44;32.28
67803;BME280;54601;51.378;-1.342;2022-08-21T00:25:41;100269.11;;;24.50;32.17
67803;BME280;54601;51.378;-1.342;2022-08-21T00:28:06;100262.71;;;24.35;32.38
67803;BME280;54601;51.378;-1.342;2022-08-21T00:30:33;100253.37;;;24.35;32.32
67803;BME280;54601;51.378;-1.342;2022-08-21T00:32:58;100258.52;;;24.37;32.25
67803;BME280;54601;51.378;-1.342;2022-08-21T00:35:26;100255.63;;;24.50;32.16
67803;BME280;54601;51.378;-1.342;2022-08-21T00:37:49;100253.60;;;24.17;32.26
67803;BME280;54601;51.378;-1.342;2022-08-21T00:40:18;100252.82;;;24.31;32.38
67803;BME280;54601;51.378;-1.342;2022-08-21T00:42:41;100249.68;;;24.36;32.25
67803;BME280;54601;51.378;-1.342;2022-08-21T00:45:08;100252.16;;;24.13;32.29
67803;BME280;54601;51.378;-1.342;2022-08-21T00:47:32;100258.79;;;24.08;32.34
67803;BME280;54601;51.378;-1.342;2022-08-21T00:49:57;100261.32;;;24.20;32.48
67803;BME280;54601;51.378;-1.342;2022-08-21T00:52:28;100259.60;;;24.25;32.45
67803;BME280;54601;51.378;-1.342;2022-08-21T00:54:50;100253.14;;;24.46;32.08
67803;BME280;54601;51.378;-1.342;2022-08-21T00:57:17;100259.41;;;24.27;32.36
67803;BME280;54601;51.378;-1.342;2022-08-21T00:59:40;100262.46;;;24.62;32.23
67803;BME280;54601;51.378;-1.342;2022-08-21T01:02:07;100263.86;;;24.19;32.45
67803;BME280;54601;51.378;-1.342;2022-08-21T01:04:31;100266.19;;;24.30;32.25
67803;BME280;54601;51.378;-1.342;2022-08-21T01:06:57;100264.90;;;24.32;32.26
67803;BME280;54601;51.378;-1.342;2022-08-21T01:09:23;100266.34;;;24.39;32.51
67803;BME280;54601;51.378;-1.342;2022-08-21T01:11:49;100269.48;;;24.22;32.36
67803;BME280;54601;51.378;-1.342;2022-08-21T01:14:15;100267.95;;;24.13;32.49
67803;BME280;54601;51.378;-1.342;2022-08-21T01:16:40;100268.56;;;24.19;32.37
67803;BME280;54601;51.378;-1.342;2022-08-21T01:19:07;100264.60;;;24.01;32.59
67803;BME280;54601;51.378;-1.342;2022-08-21T01:21:31;100265.26;;;24.37;32.47
67803;BME280;54601;51.378;-1.342;2022-08-21T01:23:57;100265.47;;;24.05;32.53
67803;BME280;54601;51.378;-1.342;2022-08-21T01:26:26;100267.68;;;24.00;32.61
67803;BME280;54601;51.378;-1.342;2022-08-21T01:28:52;100268.56;;;24.21;32.30
67803;BME280;54601;51.378;-1.342;2022-08-21T01:31:15;100269.88;;;24.77;32.24
67803;BME280;54601;51.378;-1.342;2022-08-21T01:33:39;100272.90;;;24.54;32.21
67803;BME280;54601;51.378;-1.342;2022-08-21T01:36:05;100271.02;;;24.32;32.46
67803;BME280;54601;51.378;-1.342;2022-08-21T01:38:31;100269.17;;;23.94;32.65
67803;BME280;54601;51.378;-1.342;2022-08-21T01:40:56;100267.23;;;24.19;32.31
67803;BME280;54601;51.378;-1.342;2022-08-21T01:43:22;100267.84;;;24.22;32.23
67803;BME280;54601;51.378;-1.342;2022-08-21T01:45:48;100269.71;;;24.41;31.97
67803;BME280;54601;51.378;-1.342;2022-08-21T01:48:13;100271.22;;;24.57;32.40
67803;BME280;54601;51.378;-1.342;2022-08-21T01:50:39;100267.67;;;24.00;32.47
67803;BME280;54601;51.378;-1.342;2022-08-21T01:53:05;100266.89;;;24.21;32.56
67803;BME280;54601;51.378;-1.342;2022-08-21T01:55:31;100267.53;;;24.23;32.54
67803;BME280;54601;51.378;-1.342;2022-08-21T01:57:57;100268.33;;;24.40;32.27
67803;BME280;54601;51.378;-1.342;2022-08-21T02:00:23;100266.97;;;23.97;32.49
67803;BME280;54601;51.378;-1.342;2022-08-21T02:02:48;100266.84;;;24.16;32.59
67803;BME280;54601;51.378;-1.342;2022-08-21T02:05:13;100267.21;;;23.99;32.43
67803;BME280;54601;51.378;-1.342;2022-08-21T02:07:41;100266.73;;;23.85;32.61
67803;BME280;54601;51.378;-1.342;2022-08-21T02:10:07;100262.16;;;24.37;32.57
67803;BME280;54601;51.378;-1.342;2022-08-21T02:12:30;100256.96;;;23.91;32.55
67803;BME280;54601;51.378;-1.342;2022-08-21T02:14:56;100253.99;;;24.33;32.34
67803;BME280;54601;51.378;-1.342;2022-08-21T02:17:21;100251.67;;;23.86;32.58
67803;BME280;54601;51.378;-1.342;2022-08-21T02:19:47;100253.89;;;24.02;32.39
67803;BME280;54601;51.378;-1.342;2022-08-21T02:22:13;100252.44;;;24.34;32.25
67803;BME280;54601;51.378;-1.342;2022-08-21T02:24:39;100250.42;;;23.94;32.47
67803;BME280;54601;51.378;-1.342;2022-08-21T02:27:04;100249.98;;;23.88;32.52
67803;BME280;54601;51.378;-1.342;2022-08-21T02:29:30;100247.94;;;23.88;32.52
67803;BME280;54601;51.378;-1.342;2022-08-21T02:31:56;100247.99;;;24.24;32.41
67803;BME280;54601;51.378;-1.342;2022-08-21T02:34:21;100242.50;;;23.97;32.40
67803;BME280;54601;51.378;-1.342;2022-08-21T02:36:47;100237.92;;;24.04;32.25
67803;BME280;54601;51.378;-1.342;2022-08-21T02:39:13;100239.99;;;24.35;32.17
67803;BME280;54601;51.378;-1.342;2022-08-21T02:41:38;100240.48;;;24.24;32.37
67803;BME280;54601;51.378;-1.342;2022-08-21T02:44:04;100241.85;;;23.91;32.32
67803;BME280;54601;51.378;-1.342;2022-08-21T02:46:30;100240.10;;;24.06;32.19
67803;BME280;54601;51.378;-1.342;2022-08-21T02:48:55;100240.98;;;24.30;32.22
67803;BME280;54601;51.378;-1.342;2022-08-21T02:51:21;100239.72;;;24.25;32.20
67803;BME280;54601;51.378;-1.342;2022-08-21T02:53:48;100240.26;;;24.13;32.41
67803;BME280;54601;51.378;-1.342;2022-08-21T02:56:16;100240.10;;;24.35;32.41
67803;BME280;54601;51.378;-1.342;2022-08-21T02:58:42;100237.02;;;24.53;32.20
67803;BME280;54601;51.378;-1.342;2022-08-21T03:01:04;100239.90;;;23.79;32.49
67803;BME280;54601;51.378;-1.342;2022-08-21T03:03:30;100242.44;;;24.29;32.54
67803;BME280;54601;51.378;-1.342;2022-08-21T03:05:55;100246.28;;;23.78;32.56
67803;BME280;54601;51.378;-1.342;2022-08-21T03:08:22;100251.73;;;24.08;32.48
67803;BME280;54601;51.378;-1.342;2022-08-21T03:10:50;100257.20;;;23.74;32.56
67803;BME280;54601;51.378;-1.342;2022-08-21T03:13:13;100258.22;;;24.01;32.52
67803;BME280;54601;51.378;-1.342;2022-08-21T03:15:38;100260.27;;;23.66;32.64
67803;BME280;54601;51.378;-1.342;2022-08-21T03:18:04;100261.49;;;23.96;32.55
67803;BME280;54601;51.378;-1.342;2022-08-21T03:20:29;100265.75;;;24.22;32.20
67803;BME280;54601;51.378;-1.342;2022-08-21T03:22:55;100263.81;;;24.04;32.39
67803;BME280;54601;51.378;-1.342;2022-08-21T03:25:22;100261.21;;;24.13;32.28
67803;BME280;54601;51.378;-1.342;2022-08-21T03:27:46;100259.91;;;23.97;32.52
67803;BME280;54601;51.378;-1.342;2022-08-21T03:30:12;100257.14;;;23.88;32.64
67803;BME280;54601;51.378;-1.342;2022-08-21T03:32:37;100256.24;;;23.93;32.56
67803;BME280;54601;51.378;-1.342;2022-08-21T03:35:04;100256.06;;;23.80;32.67
67803;BME280;54601;51.378;-1.342;2022-08-21T03:37:29;100256.11;;;23.86;32.29
67803;BME280;54601;51.378;-1.342;2022-08-21T03:39:54;100252.56;;;24.06;32.63
67803;BME280;54601;51.378;-1.342;2022-08-21T03:42:20;100246.72;;;23.72;32.80
67803;BME280;54601;51.378;-1.342;2022-08-21T03:44:46;100242.03;;;24.09;32.56
67803;BME280;54601;51.378;-1.342;2022-08-21T03:47:11;100240.57;;;24.08;32.61
67803;BME280;54601;51.378;-1.342;2022-08-21T03:49:37;100236.38;;;24.14;32.53
67803;BME280;54601;51.378;-1.342;2022-08-21T03:52:03;100233.80;;;23.46;32.64
67803;BME280;54601;51.378;-1.342;2022-08-21T03:54:29;100234.90;;;24.09;32.58
67803;BME280;54601;51.378;-1.342;2022-08-21T03:56:54;100229.36;;;23.70;32.42
67803;BME280;54601;51.378;-1.342;2022-08-21T03:59:20;100230.74;;;23.93;32.45
67803;BME280;54601;51.378;-1.342;2022-08-21T04:01:51;100231.72;;;23.97;32.25
67803;BME280;54601;51.378;-1.342;2022-08-21T04:04:11;100234.04;;;23.64;32.47
67803;BME280;54601;51.378;-1.342;2022-08-21T04:06:37;100234.33;;;23.68;32.45
67803;BME280;54601;51.378;-1.342;2022-08-21T04:09:03;100234.58;;;23.77;32.31
67803;BME280;54601;51.378;-1.342;2022-08-21T04:11:28;100237.23;;;23.97;32.36
67803;BME280;54601;51.378;-1.342;2022-08-21T04:13:54;100232.58;;;23.96;32.66
67803;BME280;54601;51.378;-1.342;2022-08-21T04:16:20;100229.86;;;23.94;32.40
67803;BME280;54601;51.378;-1.342;2022-08-21T04:18:45;100225.28;;;24.01;32.56
67803;BME280;54601;51.378;-1.342;2022-08-21T04:21:11;100221.86;;;23.54;32.45
67803;BME280;54601;51.378;-1.342;2022-08-21T04:23:37;100221.46;;;23.91;32.42
67803;BME280;54601;51.378;-1.342;2022-08-21T04:26:03;100219.27;;;23.96;32.60
67803;BME280;54601;51.378;-1.342;2022-08-21T04:28:28;100216.46;;;23.43;32.62
67803;BME280;54601;51.378;-1.342;2022-08-21T04:30:54;100216.00;;;23.75;32.58
67803;BME280;54601;51.378;-1.342;2022-08-21T04:33:20;100221.32;;;23.72;32.58
67803;BME280;54601;51.378;-1.342;2022-08-21T04:35:45;100220.26;;;23.63;32.70
67803;BME280;54601;51.378;-1.342;2022-08-21T04:38:11;100226.02;;;23.75;32.84
67803;BME280;54601;51.378;-1.342;2022-08-21T04:40:36;100225.75;;;23.59;32.66
67803;BME280;54601;51.378;-1.342;2022-08-21T04:43:04;100228.51;;;23.85;32.67
67803;BME280;54601;51.378;-1.342;2022-08-21T04:45:31;100233.08;;;23.75;32.36
67803;BME280;54601;51.378;-1.342;2022-08-21T04:47:56;100233.33;;;23.20;32.88
67803;BME280;54601;51.378;-1.342;2022-08-21T04:50:19;100230.57;;;23.94;32.54
67803;BME280;54601;51.378;-1.342;2022-08-21T04:52:45;100238.30;;;23.53;32.80
67803;BME280;54601;51.378;-1.342;2022-08-21T04:55:11;100241.75;;;23.90;32.56
67803;BME280;54601;51.378;-1.342;2022-08-21T04:57:36;100245.63;;;23.63;32.94
67803;BME280;54601;51.378;-1.342;2022-08-21T05:00:04;100251.82;;;23.45;32.84
67803;BME280;54601;51.378;-1.342;2022-08-21T05:02:28;100251.72;;;23.81;32.65
67803;BME280;54601;51.378;-1.342;2022-08-21T05:04:54;100252.94;;;23.25;32.72
67803;BME280;54601;51.378;-1.342;2022-08-21T05:07:22;100253.65;;;23.77;32.70
67803;BME280;54601;51.378;-1.342;2022-08-21T05:09:45;100255.52;;;23.45;32.83
67803;BME280;54601;51.378;-1.342;2022-08-21T05:12:10;100261.90;;;23.48;32.79
67803;BME280;54601;51.378;-1.342;2022-08-21T05:14:36;100269.21;;;23.47;32.76
67803;BME280;54601;51.378;-1.342;2022-08-21T05:17:02;100272.83;;;23.45;32.77
67803;BME280;54601;51.378;-1.342;2022-08-21T05:19:27;100277.95;;;23.83;32.58
67803;BME280;54601;51.378;-1.342;2022-08-21T05:21:53;100278.37;;;23.58;32.59
67803;BME280;54601;51.378;-1.342;2022-08-21T05:24:19;100279.86;;;23.50;32.70
67803;BME280;54601;51.378;-1.342;2022-08-21T05:26:45;100286.01;;;23.40;32.81
67803;BME280;54601;51.378;-1.342;2022-08-21T05:29:11;100289.40;;;23.48;32.70
67803;BME280;54601;51.378;-1.342;2022-08-21T05:31:36;100292.95;;;23.45;32.76
67803;BME280;54601;51.378;-1.342;2022-08-21T05:34:02;100298.62;;;23.64;32.78
67803;BME280;54601;51.378;-1.342;2022-08-21T05:36:27;100299.93;;;23.51;32.64
67803;BME280;54601;51.378;-1.342;2022-08-21T05:38:53;100302.83;;;23.62;32.78
67803;BME280;54601;51.378;-1.342;2022-08-21T05:41:19;100302.50;;;23.53;32.56
67803;BME280;54601;51.378;-1.342;2022-08-21T05:43:44;100299.37;;;23.95;32.28
67803;BME280;54601;51.378;-1.342;2022-08-21T05:46:10;100298.19;;;23.42;32.73
67803;BME280;54601;51.378;-1.342;2022-08-21T05:48:36;100296.56;;;23.72;32.65
67803;BME280;54601;51.378;-1.342;2022-08-21T05:51:06;100291.99;;;23.81;32.46
67803;BME280;54601;51.378;-1.342;2022-08-21T05:53:27;100283.80;;;23.45;32.71
67803;BME280;54601;51.378;-1.342;2022-08-21T05:55:53;100280.55;;;23.67;32.62
67803;BME280;54601;51.378;-1.342;2022-08-21T05:58:20;100273.63;;;23.57;32.48
67803;BME280;54601;51.378;-1.342;2022-08-21T06:00:46;100269.13;;;23.61;32.72
67803;BME280;54601;51.378;-1.342;2022-08-21T06:03:11;100260.10;;;23.51;32.82
67803;BME280;54601;51.378;-1.342;2022-08-21T06:05:36;100262.32;;;23.59;32.74
67803;BME280;54601;51.378;-1.342;2022-08-21T06:08:02;100261.90;;;23.64;32.67
67803;BME280;54601;51.378;-1.342;2022-08-21T06:10:27;100261.76;;;23.44;32.85
67803;BME280;54601;51.378;-1.342;2022-08-21T06:12:54;100257.52;;;23.70;32.57
67803;BME280;54601;51.378;-1.342;2022-08-21T06:15:19;100253.52;;;23.66;32.61
67803;BME280;54601;51.378;-1.342;2022-08-21T06:17:44;100247.51;;;23.22;32.90
67803;BME280;54601;51.378;-1.342;2022-08-21T06:20:10;100249.88;;;23.74;32.56
67803;BME280;54601;51.378;-1.342;2022-08-21T06:22:36;100247.12;;;23.43;32.62
67803;BME280;54601;51.378;-1.342;2022-08-21T06:25:02;100247.40;;;23.38;32.69
67803;BME280;54601;51.378;-1.342;2022-08-21T06:27:27;100242.66;;;23.27;32.84
67803;BME280;54601;51.378;-1.342;2022-08-21T06:29:53;100240.66;;;23.41;32.64
67803;BME280;54601;51.378;-1.342;2022-08-21T06:32:19;100247.46;;;23.75;32.47
67803;BME280;54601;51.378;-1.342;2022-08-21T06:34:45;100249.92;;;23.70;32.57
67803;BME280;54601;51.378;-1.342;2022-08-21T06:37:10;100244.32;;;23.54;32.37
67803;BME280;54601;51.378;-1.342;2022-08-21T06:39:36;100252.77;;;23.59;32.64
67803;BME280;54601;51.378;-1.342;2022-08-21T06:42:02;100257.81;;;23.57;32.70
67803;BME280;54601;51.378;-1.342;2022-08-21T06:44:28;100257.77;;;23.71;32.45
67803;BME280;54601;51.378;-1.342;2022-08-21T06:46:53;100257.17;;;23.67;32.58
67803;BME280;54601;51.378;-1.342;2022-08-21T06:49:19;100254.20;;;23.47;32.52
67803;BME280;54601;51.378;-1.342;2022-08-21T06:51:44;100254.26;;;23.51;32.74
67803;BME280;54601;51.378;-1.342;2022-08-21T06:54:10;100256.20;;;23.72;32.47
67803;BME280;54601;51.378;-1.342;2022-08-21T06:56:36;100254.15;;;23.55;32.68
67803;BME280;54601;51.378;-1.342;2022-08-21T06:59:02;100252.39;;;23.47;32.78
67803;BME280;54601;51.378;-1.342;2022-08-21T07:01:27;100252.28;;;23.64;32.57
67803;BME280;54601;51.378;-1.342;2022-08-21T07:03:53;100250.39;;;23.69;32.52
67803;BME280;54601;51.378;-1.342;2022-08-21T07:06:19;100248.64;;;23.64;32.58
67803;BME280;54601;51.378;-1.342;2022-08-21T07:08:45;100250.45;;;23.64;32.57
67803;BME280;54601;51.378;-1.342;2022-08-21T07:11:12;100251.04;;;23.73;32.38
67803;BME280;54601;51.378;-1.342;2022-08-21T07:13:36;100240.09;;;23.50;32.75
67803;BME280;54601;51.378;-1.342;2022-08-21T07:16:02;100238.38;;;23.52;32.71
67803;BME280;54601;51.378;-1.342;2022-08-21T07:18:27;100233.96;;;23.51;32.71
67803;BME280;54601;51.378;-1.342;2022-08-21T07:20:54;100228.06;;;23.85;32.28
67803;BME280;54601;51.378;-1.342;2022-08-21T07:23:22;100228.48;;;23.63;32.27
67803;BME280;54601;51.378;-1.342;2022-08-21T07:25:44;100233.01;;;23.47;32.46
67803;BME280;54601;51.378;-1.342;2022-08-21T07:28:10;100227.85;;;23.72;32.10
67803;BME280;54601;51.378;-1.342;2022-08-21T07:30:36;100225.12;;;23.81;32.31
67803;BME280;54601;51.378;-1.342;2022-08-21T07:33:02;100219.96;;;23.92;32.13
67803;BME280;54601;51.378;-1.342;2022-08-21T07:35:27;100219.90;;;23.64;32.48
67803;BME280;54601;51.378;-1.342;2022-08-21T07:37:53;100226.58;;;23.58;32.57
67803;BME280;54601;51.378;-1.342;2022-08-21T07:40:19;100228.52;;;23.66;32.47
67803;BME280;54601;51.378;-1.342;2022-08-21T07:42:46;100231.65;;;23.64;32.51
67803;BME280;54601;51.378;-1.342;2022-08-21T07:45:11;100229.31;;;23.62;32.50
67803;BME280;54601;51.378;-1.342;2022-08-21T07:47:36;100226.58;;;23.48;32.43
67803;BME280;54601;51.378;-1.342;2022-08-21T07:50:03;100223.52;;;23.35;32.56
67803;BME280;54601;51.378;-1.342;2022-08-21T07:52:27;100221.75;;;23.66;32.50
67803;BME280;54601;51.378;-1.342;2022-08-21T07:54:53;100218.67;;;23.74;32.36
67803;BME280;54601;51.378;-1.342;2022-08-21T07:57:19;100214.20;;;23.90;32.13
67803;BME280;54601;51.378;-1.342;2022-08-21T07:59:45;100214.64;;;23.64;31.84
67803;BME280;54601;51.378;-1.342;2022-08-21T08:02:11;100208.62;;;24.38;31.52
67803;BME280;54601;51.378;-1.342;2022-08-21T08:04:36;100207.20;;;23.84;31.97
67803;BME280;54601;51.378;-1.342;2022-08-21T08:07:02;100211.55;;;24.17;31.72
67803;BME280;54601;51.378;-1.342;2022-08-21T08:09:27;100206.74;;;24.60;30.94
67803;BME280;54601;51.378;-1.342;2022-08-21T08:11:53;100210.08;;;24.50;31.13
67803;BME280;54601;51.378;-1.342;2022-08-21T08:14:19;100219.43;;;24.14;31.60
67803;BME280;54601;51.378;-1.342;2022-08-21T08:16:45;100220.46;;;24.23;31.53
67803;BME280;54601;51.378;-1.342;2022-08-21T08:19:10;100228.59;;;24.27;31.54
67803;BME280;54601;51.378;-1.342;2022-08-21T08:21:36;100235.65;;;24.58;31.37
67803;BME280;54601;51.378;-1.342;2022-08-21T08:24:02;100247.39;;;24.50;31.48
67803;BME280;54601;51.378;-1.342;2022-08-21T08:26:27;100256.69;;;24.48;31.50
67803;BME280;54601;51.378;-1.342;2022-08-21T08:28:53;100259.80;;;24.45;31.54
67803;BME280;54601;51.378;-1.342;2022-08-21T08:31:19;100260.83;;;24.85;30.98
67803;BME280;54601;51.378;-1.342;2022-08-21T08:33:44;100270.02;;;24.70;31.22
67803;BME280;54601;51.378;-1.342;2022-08-21T08:36:14;100276.47;;;24.58;31.09
67803;BME280;54601;51.378;-1.342;2022-08-21T08:38:36;100278.06;;;24.68;31.50
67803;BME280;54601;51.378;-1.342;2022-08-21T08:41:09;100280.71;;;24.17;31.72
67803;BME280;54601;51.378;-1.342;2022-08-21T08:43:28;100290.49;;;24.24;31.97
67803;BME280;54601;51.378;-1.342;2022-08-21T08:45:55;100289.26;;;24.11;31.99
67803;BME280;54601;51.378;-1.342;2022-08-21T08:50:55;100289.27;;;24.43;31.96
67803;BME280;54601;51.378;-1.342;2022-08-21T08:53:14;100288.94;;;24.48;32.00
67803;BME280;54601;51.378;-1.342;2022-08-21T08:55:37;100290.62;;;24.34;32.20
67803;BME280;54601;51.378;-1.342;2022-08-21T08:58:02;100288.67;;;24.27;32.32
67803;BME280;54601;51.378;-1.342;2022-08-21T09:00:27;100286.04;;;24.12;32.18
67803;BME280;54601;51.378;-1.342;2022-08-21T09:02:56;100287.44;;;24.40;32.06
67803;BME280;54601;51.378;-1.342;2022-08-21T09:05:22;100289.61;;;23.91;32.43
67803;BME280;54601;51.378;-1.342;2022-08-21T09:07:50;100289.21;;;24.21;32.08
67803;BME280;54601;51.378;-1.342;2022-08-21T09:10:13;100295.25;;;24.31;32.27
67803;BME280;54601;51.378;-1.342;2022-08-21T09:12:50;100290.60;;;24.27;32.56
67803;BME280;54601;51.378;-1.342;2022-08-21T09:15:11;100293.18;;;23.87;32.64
67803;BME280;54601;51.378;-1.342;2022-08-21T09:17:39;100289.26;;;24.53;32.14
67803;BME280;54601;51.378;-1.342;2022-08-21T09:20:03;100286.85;;;24.39;32.13
67803;BME280;54601;51.378;-1.342;2022-08-21T09:22:28;100290.29;;;23.97;32.69
67803;BME280;54601;51.378;-1.342;2022-08-21T09:24:54;100287.10;;;24.22;32.45
67803;BME280;54601;51.378;-1.342;2022-08-21T09:27:13;100284.86;;;24.64;31.90
67803;BME280;54601;51.378;-1.342;2022-08-21T09:29:39;100286.99;;;24.83;31.82
67803;BME280;54601;51.378;-1.342;2022-08-21T09:32:03;100287.14;;;24.62;31.83
67803;BME280;54601;51.378;-1.342;2022-08-21T09:34:29;100284.00;;;24.89;31.98
67803;BME280;54601;51.378;-1.342;2022-08-21T09:36:53;100286.10;;;24.75;31.82
67803;BME280;54601;51.378;-1.342;2022-08-21T09:39:25;100290.35;;;24.41;32.57
67803;BME280;54601;51.378;-1.342;2022-08-21T09:41:44;100287.73;;;24.77;32.16
67803;BME280;54601;51.378;-1.342;2022-08-21T09:44:10;100280.85;;;24.86;32.21
67803;BME280;54601;51.378;-1.342;2022-08-21T09:46:36;100277.94;;;24.11;32.99
67803;BME280;54601;51.378;-1.342;2022-08-21T09:49:04;100276.75;;;24.80;32.41
67803;BME280;54601;51.378;-1.342;2022-08-21T09:51:29;100269.81;;;24.73;32.28
67803;BME280;54601;51.378;-1.342;2022-08-21T09:53:56;100269.89;;;24.82;32.14
67803;BME280;54601;51.378;-1.342;2022-08-21T09:56:26;100275.80;;;24.96;32.27
67803;BME280;54601;51.378;-1.342;2022-08-21T09:58:47;100276.75;;;24.38;32.12
67803;BME280;54601;51.378;-1.342;2022-08-21T10:01:14;100278.57;;;24.30;32.30
67803;BME280;54601;51.378;-1.342;2022-08-21T10:03:36;100272.89;;;24.46;32.85
67803;BME280;54601;51.378;-1.342;2022-08-21T10:06:05;100271.91;;;24.64;32.56
67803;BME280;54601;51.378;-1.342;2022-08-21T10:08:28;100273.28;;;24.69;32.05
67803;BME280;54601;51.378;-1.342;2022-08-21T10:10:56;100271.43;;;24.81;32.37
67803;BME280;54601;51.378;-1.342;2022-08-21T10:13:24;100268.11;;;24.98;32.21
67803;BME280;54601;51.378;-1.342;2022-08-21T10:15:51;100265.90;;;24.83;32.03
67803;BME280;54601;51.378;-1.342;2022-08-21T10:18:15;100271.02;;;24.32;32.36
67803;BME280;54601;51.378;-1.342;2022-08-21T10:20:41;100270.78;;;24.37;32.39
67803;BME280;54601;51.378;-1.342;2022-08-21T10:23:11;100272.23;;;24.60;32.34
67803;BME280;54601;51.378;-1.342;2022-08-21T10:25:33;100273.51;;;24.58;32.04
67803;BME280;54601;51.378;-1.342;2022-08-21T10:27:59;100270.19;;;24.66;32.19
67803;BME280;54601;51.378;-1.342;2022-08-21T10:30:24;100270.62;;;25.21;32.05
67803;BME280;54601;51.378;-1.342;2022-08-21T10:32:54;100273.46;;;25.07;31.86
67803;BME280;54601;51.378;-1.342;2022-08-21T10:35:12;100270.16;;;25.52;31.64
67803;BME280;54601;51.378;-1.342;2022-08-21T10:37:45;100268.62;;;25.15;31.70
67803;BME280;54601;51.378;-1.342;2022-08-21T10:40:10;100272.02;;;25.34;31.42
67803;BME280;54601;51.378;-1.342;2022-08-21T10:42:34;100269.95;;;25.28;31.56
67803;BME280;54601;51.378;-1.342;2022-08-21T10:45:01;100266.18;;;25.28;31.53
67803;BME280;54601;51.378;-1.342;2022-08-21T10:47:24;100266.32;;;25.31;31.58
67803;BME280;54601;51.378;-1.342;2022-08-21T10:49:51;100263.54;;;25.57;31.75
67803;BME280;54601;51.378;-1.342;2022-08-21T10:52:24;100269.43;;;25.67;31.50
67803;BME280;54601;51.378;-1.342;2022-08-21T10:54:41;100269.17;;;25.43;31.66
67803;BME280;54601;51.378;-1.342;2022-08-21T10:57:06;100271.59;;;25.45;31.34
67803;BME280;54601;51.378;-1.342;2022-08-21T10:59:32;100271.87;;;25.58;31.19
67803;BME280;54601;51.378;-1.342;2022-08-21T11:01:56;100267.38;;;25.48;31.62
67803;BME280;54601;51.378;-1.342;2022-08-21T11:04:20;100268.01;;;25.56;31.69
67803;BME280;54601;51.378;-1.342;2022-08-21T11:06:47;100264.11;;;25.34;31.47
67803;BME280;54601;51.378;-1.342;2022-08-21T11:09:14;100258.20;;;25.43;31.22
67803;BME280;54601;51.378;-1.342;2022-08-21T11:11:38;100263.43;;;25.67;31.62
67803;BME280;54601;51.378;-1.342;2022-08-21T11:14:03;100255.25;;;25.73;31.68
67803;BME280;54601;51.378;-1.342;2022-08-21T11:16:31;100252.64;;;26.04;31.32
67803;BME280;54601;51.378;-1.342;2022-08-21T11:18:55;100256.89;;;25.78;31.39
67803;BME280;54601;51.378;-1.342;2022-08-21T11:21:27;100252.73;;;25.74;31.17
67803;BME280;54601;51.378;-1.342;2022-08-21T11:23:46;100257.74;;;25.86;30.92
67803;BME280;54601;51.378;-1.342;2022-08-21T11:26:13;100253.14;;;25.88;31.57
67803;BME280;54601;51.378;-1.342;2022-08-21T11:28:39;100252.68;;;25.99;31.75
67803;BME280;54601;51.378;-1.342;2022-08-21T11:31:09;100254.32;;;25.98;31.49
67803;BME280;54601;51.378;-1.342;2022-08-21T11:33:34;100256.04;;;26.01;31.06
67803;BME280;54601;51.378;-1.342;2022-08-21T11:35:54;100255.76;;;26.00;30.97
67803;BME280;54601;51.378;-1.342;2022-08-21T11:38:25;100257.13;;;26.09;31.36
67803;BME280;54601;51.378;-1.342;2022-08-21T11:40:54;100258.74;;;25.80;31.77
67803;BME280;54601;51.378;-1.342;2022-08-21T11:43:15;100253.33;;;25.92;31.35
67803;BME280;54601;51.378;-1.342;2022-08-21T11:45:39;100250.55;;;26.15;31.16
67803;BME280;54601;51.378;-1.342;2022-08-21T11:48:05;100248.04;;;26.07;31.42
67803;BME280;54601;51.378;-1.342;2022-08-21T11:50:28;100251.63;;;26.03;31.63
67803;BME280;54601;51.378;-1.342;2022-08-21T11:52:54;100248.03;;;26.09;31.34
67803;BME280;54601;51.378;-1.342;2022-08-21T11:55:19;100243.73;;;26.05;30.67
67803;BME280;54601;51.378;-1.342;2022-08-21T11:57:50;100248.78;;;25.81;31.35
67803;BME280;54601;51.378;-1.342;2022-08-21T12:00:13;100242.89;;;26.21;31.24
67803;BME280;54601;51.378;-1.342;2022-08-21T12:02:35;100242.84;;;25.93;31.23
67803;BME280;54601;51.378;-1.342;2022-08-21T12:05:02;100244.50;;;26.37;30.88
67803;BME280;54601;51.378;-1.342;2022-08-21T12:07:30;100245.74;;;26.30;31.34
67803;BME280;54601;51.378;-1.342;2022-08-21T12:09:55;100250.50;;;26.34;31.15
67803;BME280;54601;51.378;-1.342;2022-08-21T12:12:24;100247.75;;;26.35;31.29
67803;BME280;54601;51.378;-1.342;2022-08-21T12:14:43;100245.80;;;26.00;31.25
67803;BME280;54601;51.378;-1.342;2022-08-21T12:17:15;100243.93;;;26.21;31.30
67803;BME280;54601;51.378;-1.342;2022-08-21T12:19:32;100244.53;;;26.01;30.82
67803;BME280;54601;51.378;-1.342;2022-08-21T12:22:06;100238.86;;;26.04;30.93
67803;BME280;54601;51.378;-1.342;2022-08-21T12:24:32;100244.52;;;26.22;31.18
67803;BME280;54601;51.378;-1.342;2022-08-21T12:26:51;100238.71;;;26.32;30.79
67803;BME280;54601;51.378;-1.342;2022-08-21T12:29:22;100242.91;;;26.46;30.93
67803;BME280;54601;51.378;-1.342;2022-08-21T12:31:49;100235.97;;;26.63;31.08
67803;BME280;54601;51.378;-1.342;2022-08-21T12:34:09;100235.27;;;26.05;31.10